Time;durP1;ratioP1;P1;durP2;ratioP2;P2;SDS_P1;SDS_P2;PMS_P1;PMS_P2;Temp;Humidity;BMP_temperature;BMP_pressure;BME280_temperature;BME280_humidity;BME280_pressure;Samples;Min_cycle;Max_cycle;Signal;HPM_P1;HPM_P2
2024/04/14 00:00:09;;;;;;;;;;;;;;;;;;374008;26;1075;-86
2024/04/14 00:00:19;;;;;;;;;;;;;;;;;;371551;26;1238;-86
2024/04/14 00:00:30;;;;;;;;;;;;;;;;;;371526;26;1083;-86
2024/04/14 00:00:43;;;;;;;;;;;;;;;;;;371601;26;1018;-86
2024/04/14 00:00:53;;;;;;;;;;;;;;;;;;371719;26;1055;-86
2024/04/14 00:01:06;;;;;;;;;;;;;;;;;;373779;26;1759;-86
2024/04/14 00:01:16;;;;;;;;;;;;;;;;;;374259;26;916;-86
2024/04/14 00:01:26;;;;;;;;;;;;;;;;;;374048;26;1119;-86
2024/04/14 00:01:36;;;;;;;;;;;;;;;;;;374023;26;1289;-86
2024/04/14 00:01:47;;;;;;;;;;;;;;;;;;373925;26;1035;-86
2024/04/14 00:01:57;;;;;;;;;;;;;;;;;;373890;26;1206;-86
2024/04/14 00:02:07;;;;;;;;;;;;;;;;;;368383;26;1445;-87
2024/04/14 00:02:17;;;;;;;;;;;;;;;;;;368330;26;1347;-86
2024/04/14 00:02:28;;;;;;;;;;;;;;;;;;366273;27;993;-86
2024/04/14 00:02:38;;;;;;;;;;;;;;;;;;366559;26;1440;-86
2024/04/14 00:02:48;;;;;;;;;;;;;;;;;;371185;26;1553;-86
2024/04/14 00:02:58;;;;;;;;;;;;;;;;;;371063;26;1822;-86
2024/04/14 00:03:09;;;;;;;;;;;;;;;;;;370904;26;1487;-86
2024/04/14 00:03:19;;;;;;;;;;;;;;;;;;372808;26;1332;-86
2024/04/14 00:03:29;;;;;;;;;;;;;;;;;;376814;26;829;-86
2024/04/14 00:03:39;;;;;;;;;;;;;;;;;;377092;26;1117;-86
2024/04/14 00:03:53;;;;;;;;;;;;;;;;;;376992;26;1236;-86
2024/04/14 00:04:04;;;;;;;;;;;;;;;;;;374370;26;1303;-87
2024/04/14 00:04:14;;;;;;;;;;;;;;;;;;371507;26;1307;-86
2024/04/14 00:04:24;;;;;;;;;;;;;;;;;;371973;26;1370;-86
2024/04/14 00:04:35;;;;;;;;;;;;;;;;;;372133;26;1027;-86
2024/04/14 00:04:48;;;;;;;;;;;;;;;;;;374701;26;1258;-86
2024/04/14 00:04:59;;;;;;;;;;;;;;;;;;372126;26;928;-85
2024/04/14 00:05:09;;;;;;;;;;;;;;;;;;372217;26;1016;-85
2024/04/14 00:05:19;;;;;;;;;;;;;;;;;;372022;26;1062;-86
2024/04/14 00:05:29;;;;;;;;;;;;;;;;;;373743;26;1887;-85
2024/04/14 00:05:40;;;;;;;;;;;;;;;;;;373819;26;1311;-86
2024/04/14 00:05:50;;;;;;;;;;;;;;;;;;374015;26;1332;-86
2024/04/14 00:06:00;;;;;;;;;;;;;;;;;;371208;26;801;-86
2024/04/14 00:06:10;;;;;;;;;;;;;;;;;;372090;26;1384;-86
2024/04/14 00:06:22;;;;;;;;;;;;;;;;;;371334;26;984;-86
2024/04/14 00:06:33;;;;;;;;;;;;;;;;;;373691;26;1365;-86
2024/04/14 00:06:43;;;;;;;;;;;;;;;;;;373717;26;992;-86
2024/04/14 00:06:53;;;;;;;;;;;;;;;;;;373838;26;924;-86
2024/04/14 00:07:03;;;;;;;;;;;;;;;;;;373348;26;1384;-86
2024/04/14 00:07:15;;;;;;;;;;;;;;;;;;370634;26;1373;-86
2024/04/14 00:07:25;;;;;;;;;;;;;;;;;;369182;26;1210;-86
2024/04/14 00:07:37;;;;;;;;;;;;;;;;;;369987;26;1024;-86
2024/04/14 00:07:47;;;;;;;;;;;;;;;;;;374471;26;1431;-86
2024/04/14 00:07:57;;;;;;;;;;;;;;;;;;374768;26;1482;-86
2024/04/14 00:08:07;;;;;;;;;;;;;;;;;;374372;26;1287;-87
2024/04/14 00:08:18;;;;;;;;;;;;;;;;;;372335;26;1201;-87
2024/04/14 00:08:28;;;;;;;;;;;;;;;;;;374644;26;1103;-86
2024/04/14 00:08:38;;;;;;;;;;;;;;;;;;374693;26;993;-86
2024/04/14 00:08:50;;;;;;;;;;;;;;;;;;374184;26;1392;-86
2024/04/14 00:09:00;;;;;;;;;;;;;;;;;;374318;26;1512;-85
2024/04/14 00:09:10;;;;;;;;;;;;;;;;;;372051;26;944;-85
2024/04/14 00:09:20;;;;;;;;;;;;;;;;;;370248;26;1510;-86
2024/04/14 00:09:31;;;;;;;;;;;;;;;;;;369988;26;1515;-86
2024/04/14 00:09:41;;;;;;;;;;;;;;;;;;371518;26;1164;-87
2024/04/14 00:09:52;;;;;;;;;;;;;;;;;;373623;26;1568;-86
2024/04/14 00:10:02;;;;;;;;;;;;;;;;;;373666;26;991;-87
2024/04/14 00:10:12;;;;;;;;;;;;;;;;;;373592;26;754;-87
2024/04/14 00:10:23;;;;;;;;;;;;;;;;;;373832;26;1008;-87
2024/04/14 00:10:33;;;;;;;;;;;;;;;;;;373576;26;1004;-87
2024/04/14 00:10:43;;;;;;;;;;;;;;;;;;373095;26;1457;-86
2024/04/14 00:10:54;;;;;;;;;;;;;;;;;;371858;26;1430;-86
2024/04/14 00:11:04;;;;;;;;;;;;;;;;;;373629;26;1317;-86
2024/04/14 00:11:14;;;;;;;;;;;;;;;;;;373682;26;833;-87
2024/04/14 00:11:25;;;;;;;;;;;;;;;;;;369239;26;1450;-86
2024/04/14 00:11:35;;;;;;;;;;;;;;;;;;369179;26;1085;-85
2024/04/14 00:11:45;;;;;;;;;;;;;;;;;;371747;26;794;-86
2024/04/14 00:11:55;;;;;;;;;;;;;;;;;;371507;26;1235;-86
2024/04/14 00:12:06;;;;;;;;;;;;;;;;;;371631;26;1016;-86
2024/04/14 00:12:16;;;;;;;;;;;;;;;;;;371719;26;1008;-86
2024/04/14 00:12:26;;;;;;;;;;;;;;;;;;371738;26;980;-86
2024/04/14 00:12:36;;;;;;;;;;;;;;;;;;371797;26;1039;-86
2024/04/14 00:12:47;;;;;;;;;;;;;;;;;;371762;26;957;-86
2024/04/14 00:12:57;;;;;;;;;;;;;;;;;;372431;26;1183;-86
2024/04/14 00:13:07;;;;;;;;;;;;;;;;;;371440;26;1223;-86
2024/04/14 00:13:17;;;;;;;;;;;;;;;;;;371607;26;1032;-86
2024/04/14 00:13:28;;;;;;;;;;;;;;;;;;371245;26;901;-86
2024/04/14 00:13:38;;;;;;;;;;;;;;;;;;371370;26;917;-86
2024/04/14 00:13:48;;;;;;;;;;;;;;;;;;373582;26;1047;-86
2024/04/14 00:13:59;;;;;;;;;;;;;;;;;;373675;26;921;-86
2024/04/14 00:14:09;;;;;;;;;;;;;;;;;;371130;26;1020;-87
2024/04/14 00:14:19;;;;;;;;;;;;;;;;;;371167;26;1179;-86
2024/04/14 00:14:29;;;;;;;;;;;;;;;;;;371030;26;1146;-87
2024/04/14 00:14:40;;;;;;;;;;;;;;;;;;374996;26;1472;-87
2024/04/14 00:14:50;;;;;;;;;;;;;;;;;;375984;26;1035;-87
2024/04/14 00:15:00;;;;;;;;;;;;;;;;;;376176;26;1369;-86
2024/04/14 00:15:10;;;;;;;;;;;;;;;;;;373354;26;1071;-86
2024/04/14 00:15:20;;;;;;;;;;;;;;;;;;373741;26;1048;-87
2024/04/14 00:15:31;;;;;;;;;;;;;;;;;;373544;26;1059;-86
2024/04/14 00:15:41;;;;;;;;;;;;;;;;;;373796;26;789;-86
2024/04/14 00:15:58;;;;;;;;;;;;;;;;;;373481;26;816;-87
2024/04/14 00:16:08;;;;;;;;;;;;;;;;;;375963;26;1055;-87
2024/04/14 00:16:18;;;;;;;;;;;;;;;;;;378334;26;1435;-86
2024/04/14 00:16:28;;;;;;;;;;;;;;;;;;375852;26;1213;-86
2024/04/14 00:16:39;;;;;;;;;;;;;;;;;;375911;26;1551;-86
2024/04/14 00:16:50;;;;;;;;;;;;;;;;;;375974;26;1157;-87
2024/04/14 00:17:00;;;;;;;;;;;;;;;;;;375907;26;1468;-87
2024/04/14 00:17:10;;;;;;;;;;;;;;;;;;376367;26;976;-87
2024/04/14 00:17:20;;;;;;;;;;;;;;;;;;378582;26;1325;-86
2024/04/14 00:17:31;;;;;;;;;;;;;;;;;;379360;26;1650;-86
2024/04/14 00:17:41;;;;;;;;;;;;;;;;;;376736;26;1365;-86
2024/04/14 00:17:51;;;;;;;;;;;;;;;;;;376205;26;661;-86
2024/04/14 00:18:01;;;;;;;;;;;;;;;;;;371096;26;1327;-87
2024/04/14 00:18:11;;;;;;;;;;;;;;;;;;376010;26;1351;-87
2024/04/14 00:18:22;;;;;;;;;;;;;;;;;;372735;26;927;-87
2024/04/14 00:18:32;;;;;;;;;;;;;;;;;;371209;26;1058;-87
2024/04/14 00:18:42;;;;;;;;;;;;;;;;;;373272;26;1294;-87
2024/04/14 00:18:53;;;;;;;;;;;;;;;;;;371264;26;1020;-86
2024/04/14 00:19:03;;;;;;;;;;;;;;;;;;368530;26;1166;-86
2024/04/14 00:19:16;;;;;;;;;;;;;;;;;;371146;26;1201;-86
2024/04/14 00:19:26;;;;;;;;;;;;;;;;;;371401;26;1212;-86
2024/04/14 00:19:36;;;;;;;;;;;;;;;;;;375955;26;1254;-86
2024/04/14 00:19:52;;;;;;;;;;;;;;;;;;373368;26;1181;-86
2024/04/14 00:20:03;;;;;;;;;;;;;;;;;;370873;26;1362;-86
2024/04/14 00:20:13;;;;;;;;;;;;;;;;;;373248;26;1241;-87
2024/04/14 00:20:24;;;;;;;;;;;;;;;;;;370467;26;1985;-87
2024/04/14 00:20:35;;;;;;;;;;;;;;;;;;373641;26;770;-86
2024/04/14 00:20:45;;;;;;;;;;;;;;;;;;370960;26;952;-86
2024/04/14 00:20:55;;;;;;;;;;;;;;;;;;371265;26;987;-86
2024/04/14 00:21:06;;;;;;;;;;;;;;;;;;371743;26;1108;-86
2024/04/14 00:21:16;;;;;;;;;;;;;;;;;;371120;26;1205;-86
2024/04/14 00:21:26;;;;;;;;;;;;;;;;;;373455;26;1252;-87
2024/04/14 00:21:36;;;;;;;;;;;;;;;;;;371115;26;1214;-86
2024/04/14 00:21:46;;;;;;;;;;;;;;;;;;372342;26;1439;-86
2024/04/14 00:21:57;;;;;;;;;;;;;;;;;;373701;26;837;-86
2024/04/14 00:22:07;;;;;;;;;;;;;;;;;;373515;26;1023;-86
2024/04/14 00:22:17;;;;;;;;;;;;;;;;;;371127;26;1252;-86
2024/04/14 00:22:27;;;;;;;;;;;;;;;;;;371095;26;794;-86
2024/04/14 00:22:40;;;;;;;;;;;;;;;;;;371158;26;996;-86
2024/04/14 00:22:50;;;;;;;;;;;;;;;;;;373369;26;1535;-86
2024/04/14 00:23:00;;;;;;;;;;;;;;;;;;373531;26;1869;-86
2024/04/14 00:23:10;;;;;;;;;;;;;;;;;;376023;26;939;-86
2024/04/14 00:23:21;;;;;;;;;;;;;;;;;;377061;26;991;-86
2024/04/14 00:23:31;;;;;;;;;;;;;;;;;;378442;26;1003;-86
2024/04/14 00:23:42;;;;;;;;;;;;;;;;;;376103;26;1046;-86
2024/04/14 00:23:52;;;;;;;;;;;;;;;;;;375917;26;1051;-86
2024/04/14 00:24:03;;;;;;;;;;;;;;;;;;373649;26;1035;-86
2024/04/14 00:24:14;;;;;;;;;;;;;;;;;;373451;26;785;-86
2024/04/14 00:24:24;;;;;;;;;;;;;;;;;;375794;26;1201;-86
2024/04/14 00:24:34;;;;;;;;;;;;;;;;;;375847;26;1058;-86
2024/04/14 00:24:45;;;;;;;;;;;;;;;;;;378479;26;1168;-86
2024/04/14 00:24:55;;;;;;;;;;;;;;;;;;378463;26;1003;-86
2024/04/14 00:25:05;;;;;;;;;;;;;;;;;;378652;26;1015;-86
2024/04/14 00:25:16;;;;;;;;;;;;;;;;;;370843;26;1075;-86
2024/04/14 00:25:26;;;;;;;;;;;;;;;;;;370589;26;999;-86
2024/04/14 00:25:36;;;;;;;;;;;;;;;;;;371098;26;1003;-87
2024/04/14 00:25:47;;;;;;;;;;;;;;;;;;371210;26;956;-86
2024/04/14 00:25:57;;;;;;;;;;;;;;;;;;370951;26;1380;-86
2024/04/14 00:26:10;;;;;;;;;;;;;;;;;;371177;26;980;-86
2024/04/14 00:26:20;;;;;;;;;;;;;;;;;;368681;26;1016;-87
2024/04/14 00:26:31;;;;;;;;;;;;;;;;;;368831;26;905;-86
2024/04/14 00:26:41;;;;;;;;;;;;;;;;;;368504;26;1211;-86
2024/04/14 00:26:51;;;;;;;;;;;;;;;;;;366707;26;1456;-86
2024/04/14 00:27:02;;;;;;;;;;;;;;;;;;368258;26;1674;-87
2024/04/14 00:27:12;;;;;;;;;;;;;;;;;;368815;26;988;-87
2024/04/14 00:27:22;;;;;;;;;;;;;;;;;;366158;26;1285;-86
2024/04/14 00:27:32;;;;;;;;;;;;;;;;;;366935;26;1266;-86
2024/04/14 00:27:43;;;;;;;;;;;;;;;;;;368537;26;1074;-86
2024/04/14 00:27:53;;;;;;;;;;;;;;;;;;368791;26;1007;-86
2024/04/14 00:28:04;;;;;;;;;;;;;;;;;;370850;26;1682;-86
2024/04/14 00:28:14;;;;;;;;;;;;;;;;;;371169;26;1000;-86
2024/04/14 00:28:24;;;;;;;;;;;;;;;;;;373413;26;1019;-86
2024/04/14 00:28:35;;;;;;;;;;;;;;;;;;373772;26;811;-86
2024/04/14 00:28:45;;;;;;;;;;;;;;;;;;373362;26;738;-86
2024/04/14 00:28:55;;;;;;;;;;;;;;;;;;373623;26;1074;-86
2024/04/14 00:29:06;;;;;;;;;;;;;;;;;;373319;26;1565;-87
2024/04/14 00:29:16;;;;;;;;;;;;;;;;;;373425;26;1436;-86
2024/04/14 00:29:26;;;;;;;;;;;;;;;;;;373356;26;1221;-86
2024/04/14 00:29:36;;;;;;;;;;;;;;;;;;373526;26;1282;-87
2024/04/14 00:29:47;;;;;;;;;;;;;;;;;;373423;26;995;-86
2024/04/14 00:29:57;;;;;;;;;;;;;;;;;;371137;26;1115;-86
2024/04/14 00:30:07;;;;;;;;;;;;;;;;;;371736;26;1439;-86
2024/04/14 00:30:18;;;;;;;;;;;;;;;;;;373680;26;794;-86
2024/04/14 00:30:28;;;;;;;;;;;;;;;;;;373518;26;1063;-87
2024/04/14 00:30:40;;;;;;;;;;;;;;;;;;371210;26;1015;-86
2024/04/14 00:30:51;;;;;;;;;;;;;;;;;;372314;26;1437;-87
2024/04/14 00:31:01;;;;;;;;;;;;;;;;;;376101;26;995;-87
2024/04/14 00:31:11;;;;;;;;;;;;;;;;;;375884;26;1207;-86
2024/04/14 00:31:21;;;;;;;;;;;;;;;;;;373641;26;1232;-86
2024/04/14 00:31:32;;;;;;;;;;;;;;;;;;373527;26;872;-87
2024/04/14 00:31:42;;;;;;;;;;;;;;;;;;373735;26;1062;-86
2024/04/14 00:31:53;;;;;;;;;;;;;;;;;;375785;26;1176;-86
2024/04/14 00:32:03;;;;;;;;;;;;;;;;;;374915;26;1576;-86
2024/04/14 00:32:14;;;;;;;;;;;;;;;;;;375812;26;848;-86
2024/04/14 00:32:24;;;;;;;;;;;;;;;;;;374175;26;1168;-86
2024/04/14 00:32:34;;;;;;;;;;;;;;;;;;375848;26;1232;-86
2024/04/14 00:32:47;;;;;;;;;;;;;;;;;;376185;26;991;-86
2024/04/14 00:32:57;;;;;;;;;;;;;;;;;;370784;26;1248;-86
2024/04/14 00:33:07;;;;;;;;;;;;;;;;;;371231;26;778;-86
2024/04/14 00:33:18;;;;;;;;;;;;;;;;;;370936;26;1000;-86
2024/04/14 00:33:31;;;;;;;;;;;;;;;;;;373500;26;1269;-86
2024/04/14 00:33:41;;;;;;;;;;;;;;;;;;373294;26;1446;-86
2024/04/14 00:33:51;;;;;;;;;;;;;;;;;;371025;26;1345;-85
2024/04/14 00:34:02;;;;;;;;;;;;;;;;;;371984;26;1394;-86
2024/04/14 00:34:12;;;;;;;;;;;;;;;;;;371210;26;1000;-86
2024/04/14 00:34:23;;;;;;;;;;;;;;;;;;375787;26;1220;-86
2024/04/14 00:34:33;;;;;;;;;;;;;;;;;;376153;26;912;-86
2024/04/14 00:34:43;;;;;;;;;;;;;;;;;;370998;26;833;-86
2024/04/14 00:34:53;;;;;;;;;;;;;;;;;;371212;26;1016;-87
2024/04/14 00:35:04;;;;;;;;;;;;;;;;;;370191;26;1883;-87
2024/04/14 00:35:14;;;;;;;;;;;;;;;;;;373448;26;1273;-86
2024/04/14 00:35:25;;;;;;;;;;;;;;;;;;373504;26;996;-86
2024/04/14 00:35:35;;;;;;;;;;;;;;;;;;373496;26;1180;-87
2024/04/14 00:35:45;;;;;;;;;;;;;;;;;;373436;26;1011;-86
2024/04/14 00:35:56;;;;;;;;;;;;;;;;;;371095;26;1245;-86
2024/04/14 00:36:06;;;;;;;;;;;;;;;;;;368587;26;1306;-86
2024/04/14 00:36:16;;;;;;;;;;;;;;;;;;368744;26;992;-86
2024/04/14 00:36:26;;;;;;;;;;;;;;;;;;368572;26;985;-86
2024/04/14 00:36:37;;;;;;;;;;;;;;;;;;368700;26;1206;-86
2024/04/14 00:36:48;;;;;;;;;;;;;;;;;;368515;26;937;-86
2024/04/14 00:36:58;;;;;;;;;;;;;;;;;;368709;26;1483;-86
2024/04/14 00:37:08;;;;;;;;;;;;;;;;;;367710;26;1281;-86
2024/04/14 00:37:19;;;;;;;;;;;;;;;;;;368214;26;1313;-86
2024/04/14 00:37:29;;;;;;;;;;;;;;;;;;368537;26;1000;-86
2024/04/14 00:37:39;;;;;;;;;;;;;;;;;;368817;26;778;-86
2024/04/14 00:37:49;;;;;;;;;;;;;;;;;;370950;26;1024;-86
2024/04/14 00:38:00;;;;;;;;;;;;;;;;;;371202;26;1040;-86
2024/04/14 00:38:10;;;;;;;;;;;;;;;;;;370883;26;1280;-86
2024/04/14 00:38:20;;;;;;;;;;;;;;;;;;371165;26;762;-86
2024/04/14 00:38:30;;;;;;;;;;;;;;;;;;371201;26;1032;-86
2024/04/14 00:38:41;;;;;;;;;;;;;;;;;;375959;26;1314;-86
2024/04/14 00:38:51;;;;;;;;;;;;;;;;;;375908;26;1264;-86
2024/04/14 00:39:01;;;;;;;;;;;;;;;;;;375989;26;1003;-86
2024/04/14 00:39:12;;;;;;;;;;;;;;;;;;376084;26;1032;-86
2024/04/14 00:39:22;;;;;;;;;;;;;;;;;;375729;26;785;-87
2024/04/14 00:39:32;;;;;;;;;;;;;;;;;;372892;26;1207;-86
2024/04/14 00:39:43;;;;;;;;;;;;;;;;;;373317;26;1597;-86
2024/04/14 00:39:53;;;;;;;;;;;;;;;;;;373706;26;1008;-86
2024/04/14 00:40:03;;;;;;;;;;;;;;;;;;370974;26;1000;-86
2024/04/14 00:40:13;;;;;;;;;;;;;;;;;;371169;26;1079;-86
2024/04/14 00:40:24;;;;;;;;;;;;;;;;;;370906;26;1250;-86
2024/04/14 00:40:34;;;;;;;;;;;;;;;;;;370956;26;1351;-87
2024/04/14 00:40:44;;;;;;;;;;;;;;;;;;370955;26;1023;-87
2024/04/14 00:40:54;;;;;;;;;;;;;;;;;;371227;26;1016;-87
2024/04/14 00:41:05;;;;;;;;;;;;;;;;;;373385;26;1223;-87
2024/04/14 00:41:15;;;;;;;;;;;;;;;;;;373573;26;1018;-87
2024/04/14 00:41:25;;;;;;;;;;;;;;;;;;373386;26;1043;-86
2024/04/14 00:41:35;;;;;;;;;;;;;;;;;;375982;26;1163;-86
2024/04/14 00:41:45;;;;;;;;;;;;;;;;;;375941;26;813;-86
2024/04/14 00:41:56;;;;;;;;;;;;;;;;;;373505;26;1683;-86
2024/04/14 00:42:06;;;;;;;;;;;;;;;;;;372119;26;1261;-86
2024/04/14 00:42:19;;;;;;;;;;;;;;;;;;371069;26;1254;-86
2024/04/14 00:42:29;;;;;;;;;;;;;;;;;;370164;26;1405;-86
2024/04/14 00:42:39;;;;;;;;;;;;;;;;;;373684;26;1031;-86
2024/04/14 00:42:56;;;;;;;;;;;;;;;;;;373402;26;1039;-86
2024/04/14 00:43:06;;;;;;;;;;;;;;;;;;373366;26;1178;-86
2024/04/14 00:43:17;;;;;;;;;;;;;;;;;;373665;26;987;-87
2024/04/14 00:43:27;;;;;;;;;;;;;;;;;;373256;26;1427;-86
2024/04/14 00:43:37;;;;;;;;;;;;;;;;;;373687;26;979;-87
2024/04/14 00:43:47;;;;;;;;;;;;;;;;;;370831;26;992;-86
2024/04/14 00:43:58;;;;;;;;;;;;;;;;;;371089;26;1253;-86
2024/04/14 00:44:08;;;;;;;;;;;;;;;;;;373349;26;1194;-86
2024/04/14 00:44:18;;;;;;;;;;;;;;;;;;376077;26;1031;-86
2024/04/14 00:44:28;;;;;;;;;;;;;;;;;;373252;26;1288;-86
2024/04/14 00:44:38;;;;;;;;;;;;;;;;;;373572;26;1232;-86
2024/04/14 00:44:49;;;;;;;;;;;;;;;;;;371049;26;1191;-86
2024/04/14 00:44:59;;;;;;;;;;;;;;;;;;371102;26;1222;-86
2024/04/14 00:45:10;;;;;;;;;;;;;;;;;;373599;26;1154;-86
2024/04/14 00:45:20;;;;;;;;;;;;;;;;;;373156;26;1274;-86
2024/04/14 00:45:30;;;;;;;;;;;;;;;;;;373525;26;746;-86
2024/04/14 00:45:41;;;;;;;;;;;;;;;;;;373773;26;773;-86
2024/04/14 00:45:52;;;;;;;;;;;;;;;;;;375925;26;1148;-86
2024/04/14 00:46:02;;;;;;;;;;;;;;;;;;373693;26;903;-86
2024/04/14 00:46:13;;;;;;;;;;;;;;;;;;373554;26;908;-86
2024/04/14 00:46:23;;;;;;;;;;;;;;;;;;373734;26;921;-86
2024/04/14 00:46:33;;;;;;;;;;;;;;;;;;370373;26;1279;-86
2024/04/14 00:46:44;;;;;;;;;;;;;;;;;;371007;26;1295;-87
2024/04/14 00:46:54;;;;;;;;;;;;;;;;;;368623;26;1197;-86
2024/04/14 00:47:05;;;;;;;;;;;;;;;;;;368714;26;719;-86
2024/04/14 00:47:16;;;;;;;;;;;;;;;;;;368656;26;1000;-86
2024/04/14 00:47:26;;;;;;;;;;;;;;;;;;366307;27;1238;-86
2024/04/14 00:47:36;;;;;;;;;;;;;;;;;;368054;26;1423;-86
2024/04/14 00:47:47;;;;;;;;;;;;;;;;;;368778;26;778;-86
2024/04/14 00:47:57;;;;;;;;;;;;;;;;;;368662;26;988;-86
2024/04/14 00:48:07;;;;;;;;;;;;;;;;;;373410;26;1210;-86
2024/04/14 00:48:18;;;;;;;;;;;;;;;;;;373671;26;980;-87
2024/04/14 00:48:28;;;;;;;;;;;;;;;;;;373588;26;718;-87
2024/04/14 00:48:39;;;;;;;;;;;;;;;;;;372016;26;1503;-86
2024/04/14 00:48:49;;;;;;;;;;;;;;;;;;374389;26;996;-86
2024/04/14 00:49:00;;;;;;;;;;;;;;;;;;373540;26;1291;-86
2024/04/14 00:49:11;;;;;;;;;;;;;;;;;;373489;26;838;-87
2024/04/14 00:49:21;;;;;;;;;;;;;;;;;;373514;26;1309;-86
2024/04/14 00:49:32;;;;;;;;;;;;;;;;;;373539;26;984;-86
2024/04/14 00:49:42;;;;;;;;;;;;;;;;;;368743;26;1040;-86
2024/04/14 00:49:53;;;;;;;;;;;;;;;;;;372904;26;1872;-86
2024/04/14 00:50:07;;;;;;;;;;;;;;;;;;373573;26;1023;-86
2024/04/14 00:50:18;;;;;;;;;;;;;;;;;;373556;26;1293;-86
2024/04/14 00:50:28;;;;;;;;;;;;;;;;;;373429;26;789;-86
2024/04/14 00:50:39;;;;;;;;;;;;;;;;;;373630;26;1015;-86
2024/04/14 00:50:50;;;;;;;;;;;;;;;;;;370908;26;1273;-86
2024/04/14 00:51:02;;;;;;;;;;;;;;;;;;371201;26;920;-86
2024/04/14 00:51:12;;;;;;;;;;;;;;;;;;375762;26;1221;-86
2024/04/14 00:51:24;;;;;;;;;;;;;;;;;;373601;26;933;-86
2024/04/14 00:51:35;;;;;;;;;;;;;;;;;;373470;26;960;-87
2024/04/14 00:51:45;;;;;;;;;;;;;;;;;;375809;26;1181;-86
2024/04/14 00:51:56;;;;;;;;;;;;;;;;;;375765;26;1249;-86
2024/04/14 00:52:07;;;;;;;;;;;;;;;;;;373602;26;968;-86
2024/04/14 00:52:17;;;;;;;;;;;;;;;;;;373480;26;996;-86
2024/04/14 00:52:27;;;;;;;;;;;;;;;;;;373596;26;1047;-86
2024/04/14 00:52:38;;;;;;;;;;;;;;;;;;373202;26;1391;-86
2024/04/14 00:52:48;;;;;;;;;;;;;;;;;;373488;26;1320;-86
2024/04/14 00:52:59;;;;;;;;;;;;;;;;;;370744;26;1325;-86
2024/04/14 00:53:10;;;;;;;;;;;;;;;;;;373713;26;892;-86
2024/04/14 00:53:21;;;;;;;;;;;;;;;;;;373303;26;971;-86
2024/04/14 00:53:31;;;;;;;;;;;;;;;;;;370449;26;1257;-86
2024/04/14 00:53:42;;;;;;;;;;;;;;;;;;373404;26;785;-86
2024/04/14 00:53:52;;;;;;;;;;;;;;;;;;373606;26;766;-86
2024/04/14 00:54:03;;;;;;;;;;;;;;;;;;373512;26;1070;-86
2024/04/14 00:54:17;;;;;;;;;;;;;;;;;;373575;26;1016;-86
2024/04/14 00:54:30;;;;;;;;;;;;;;;;;;376095;26;1172;-86
2024/04/14 00:54:40;;;;;;;;;;;;;;;;;;373353;26;1249;-86
2024/04/14 00:54:51;;;;;;;;;;;;;;;;;;378635;26;848;-86
2024/04/14 00:55:01;;;;;;;;;;;;;;;;;;378090;26;1275;-87
2024/04/14 00:55:12;;;;;;;;;;;;;;;;;;371098;26;1201;-86
2024/04/14 00:55:22;;;;;;;;;;;;;;;;;;373141;26;1189;-86
2024/04/14 00:55:33;;;;;;;;;;;;;;;;;;373619;26;783;-86
2024/04/14 00:55:45;;;;;;;;;;;;;;;;;;373494;26;1004;-86
2024/04/14 00:55:55;;;;;;;;;;;;;;;;;;373516;26;1032;-86
2024/04/14 00:56:06;;;;;;;;;;;;;;;;;;373405;26;971;-86
2024/04/14 00:56:16;;;;;;;;;;;;;;;;;;371053;26;1180;-86
2024/04/14 00:56:27;;;;;;;;;;;;;;;;;;375802;26;1182;-86
2024/04/14 00:56:37;;;;;;;;;;;;;;;;;;375894;26;1431;-86
2024/04/14 00:56:48;;;;;;;;;;;;;;;;;;378408;26;1564;-86
2024/04/14 00:56:59;;;;;;;;;;;;;;;;;;378574;26;912;-86
2024/04/14 00:57:09;;;;;;;;;;;;;;;;;;373450;26;1008;-87
2024/04/14 00:57:20;;;;;;;;;;;;;;;;;;373664;26;746;-86
2024/04/14 00:57:32;;;;;;;;;;;;;;;;;;373333;26;1367;-86
2024/04/14 00:57:42;;;;;;;;;;;;;;;;;;371061;26;1336;-86
2024/04/14 00:57:53;;;;;;;;;;;;;;;;;;370495;26;1554;-87
2024/04/14 00:58:04;;;;;;;;;;;;;;;;;;370995;26;1218;-86
2024/04/14 00:58:15;;;;;;;;;;;;;;;;;;370863;26;1213;-86
2024/04/14 00:58:25;;;;;;;;;;;;;;;;;;372857;26;1951;-86
2024/04/14 00:58:36;;;;;;;;;;;;;;;;;;373401;26;989;-86
2024/04/14 00:58:46;;;;;;;;;;;;;;;;;;373652;26;971;-86
2024/04/14 00:58:57;;;;;;;;;;;;;;;;;;373480;26;874;-87
2024/04/14 00:59:08;;;;;;;;;;;;;;;;;;373635;26;774;-87
2024/04/14 00:59:18;;;;;;;;;;;;;;;;;;373558;26;952;-87
2024/04/14 00:59:29;;;;;;;;;;;;;;;;;;376177;26;707;-86
2024/04/14 00:59:40;;;;;;;;;;;;;;;;;;375935;26;992;-86
2024/04/14 00:59:52;;;;;;;;;;;;;;;;;;376037;26;1012;-86
2024/04/14 01:00:03;;;;;;;;;;;;;;;;;;373220;26;1226;-86
2024/04/14 01:00:14;;;;;;;;;;;;;;;;;;375732;26;1323;-86
2024/04/14 01:00:25;;;;;;;;;;;;;;;;;;376191;26;892;-86
2024/04/14 01:00:36;;;;;;;;;;;;;;;;;;375021;26;1208;-86
2024/04/14 01:00:47;;;;;;;;;;;;;;;;;;371217;26;1000;-86
2024/04/14 01:00:57;;;;;;;;;;;;;;;;;;373497;26;980;-86
2024/04/14 01:01:08;;;;;;;;;;;;;;;;;;373670;26;1012;-86
2024/04/14 01:01:18;;;;;;;;;;;;;;;;;;373435;26;956;-86
2024/04/14 01:01:30;;;;;;;;;;;;;;;;;;373594;26;1422;-86
2024/04/14 01:01:40;;;;;;;;;;;;;;;;;;375679;26;1353;-86
2024/04/14 01:01:50;;;;;;;;;;;;;;;;;;376160;26;931;-86
2024/04/14 01:02:01;;;;;;;;;;;;;;;;;;375710;26;1415;-86
2024/04/14 01:02:11;;;;;;;;;;;;;;;;;;375943;26;1000;-86
2024/04/14 01:02:24;;;;;;;;;;;;;;;;;;375902;26;932;-86
2024/04/14 01:02:37;;;;;;;;;;;;;;;;;;376119;26;951;-86
2024/04/14 01:02:50;;;;;;;;;;;;;;;;;;373212;26;1281;-86
2024/04/14 01:03:01;;;;;;;;;;;;;;;;;;373416;26;1847;-86
2024/04/14 01:03:11;;;;;;;;;;;;;;;;;;372110;26;1529;-86
2024/04/14 01:03:21;;;;;;;;;;;;;;;;;;371230;26;1000;-86
2024/04/14 01:03:33;;;;;;;;;;;;;;;;;;371023;26;996;-86
2024/04/14 01:03:43;;;;;;;;;;;;;;;;;;371046;26;765;-86
2024/04/14 01:03:53;;;;;;;;;;;;;;;;;;371562;26;698;-86
2024/04/14 01:04:03;;;;;;;;;;;;;;;;;;371075;26;1241;-86
2024/04/14 01:04:14;;;;;;;;;;;;;;;;;;371007;26;904;-86
2024/04/14 01:04:24;;;;;;;;;;;;;;;;;;371126;26;1256;-86
2024/04/14 01:04:34;;;;;;;;;;;;;;;;;;370352;26;1867;-86
2024/04/14 01:04:44;;;;;;;;;;;;;;;;;;368739;26;1327;-86
2024/04/14 01:04:54;;;;;;;;;;;;;;;;;;373504;26;802;-86
2024/04/14 01:05:05;;;;;;;;;;;;;;;;;;373484;26;1166;-86
2024/04/14 01:05:15;;;;;;;;;;;;;;;;;;373319;26;1213;-86
2024/04/14 01:05:25;;;;;;;;;;;;;;;;;;373595;26;1385;-86
2024/04/14 01:05:36;;;;;;;;;;;;;;;;;;373435;26;778;-86
2024/04/14 01:05:46;;;;;;;;;;;;;;;;;;371054;26;1159;-86
2024/04/14 01:05:56;;;;;;;;;;;;;;;;;;373402;26;1043;-86
2024/04/14 01:06:07;;;;;;;;;;;;;;;;;;371168;26;1221;-86
2024/04/14 01:06:17;;;;;;;;;;;;;;;;;;370909;26;1035;-86
2024/04/14 01:06:27;;;;;;;;;;;;;;;;;;372662;26;1306;-86
2024/04/14 01:06:38;;;;;;;;;;;;;;;;;;373384;26;936;-86
2024/04/14 01:06:48;;;;;;;;;;;;;;;;;;373666;26;742;-86
2024/04/14 01:06:59;;;;;;;;;;;;;;;;;;373372;26;1152;-86
2024/04/14 01:07:09;;;;;;;;;;;;;;;;;;373592;26;915;-86
2024/04/14 01:07:20;;;;;;;;;;;;;;;;;;373330;26;1063;-86
2024/04/14 01:07:31;;;;;;;;;;;;;;;;;;373570;26;1015;-86
2024/04/14 01:07:41;;;;;;;;;;;;;;;;;;372976;26;746;-86
2024/04/14 01:07:52;;;;;;;;;;;;;;;;;;373686;26;918;-86
2024/04/14 01:08:02;;;;;;;;;;;;;;;;;;375743;26;1277;-86
2024/04/14 01:08:12;;;;;;;;;;;;;;;;;;373554;26;933;-86
2024/04/14 01:08:23;;;;;;;;;;;;;;;;;;372499;26;1292;-86
2024/04/14 01:08:33;;;;;;;;;;;;;;;;;;371045;26;1282;-86
2024/04/14 01:08:44;;;;;;;;;;;;;;;;;;370791;26;1390;-86
2024/04/14 01:08:54;;;;;;;;;;;;;;;;;;371012;26;1039;-86
2024/04/14 01:09:05;;;;;;;;;;;;;;;;;;371520;26;1901;-86
2024/04/14 01:09:16;;;;;;;;;;;;;;;;;;373367;26;1079;-86
2024/04/14 01:09:26;;;;;;;;;;;;;;;;;;370937;26;766;-86
2024/04/14 01:09:36;;;;;;;;;;;;;;;;;;369055;26;1294;-86
2024/04/14 01:09:47;;;;;;;;;;;;;;;;;;370940;26;916;-86
2024/04/14 01:09:58;;;;;;;;;;;;;;;;;;371044;26;984;-86
2024/04/14 01:10:08;;;;;;;;;;;;;;;;;;370885;26;1016;-86
2024/04/14 01:10:19;;;;;;;;;;;;;;;;;;371060;26;1196;-86
2024/04/14 01:10:30;;;;;;;;;;;;;;;;;;370938;26;829;-86
2024/04/14 01:10:41;;;;;;;;;;;;;;;;;;371006;26;1160;-86
2024/04/14 01:10:51;;;;;;;;;;;;;;;;;;370909;26;770;-86
2024/04/14 01:11:02;;;;;;;;;;;;;;;;;;369015;26;1404;-86
2024/04/14 01:11:12;;;;;;;;;;;;;;;;;;370908;26;1016;-86
2024/04/14 01:11:22;;;;;;;;;;;;;;;;;;370972;26;1470;-86
2024/04/14 01:11:33;;;;;;;;;;;;;;;;;;370780;26;1412;-86
2024/04/14 01:11:43;;;;;;;;;;;;;;;;;;371252;26;818;-86
2024/04/14 01:11:53;;;;;;;;;;;;;;;;;;373327;26;992;-86
2024/04/14 01:12:04;;;;;;;;;;;;;;;;;;373649;26;818;-86
2024/04/14 01:12:14;;;;;;;;;;;;;;;;;;370841;26;1332;-86
2024/04/14 01:12:24;;;;;;;;;;;;;;;;;;373561;26;1066;-86
2024/04/14 01:12:35;;;;;;;;;;;;;;;;;;370891;26;1329;-86
2024/04/14 01:12:45;;;;;;;;;;;;;;;;;;371214;26;975;-86
2024/04/14 01:12:55;;;;;;;;;;;;;;;;;;373157;26;1090;-86
2024/04/14 01:13:05;;;;;;;;;;;;;;;;;;373590;26;1019;-86
2024/04/14 01:13:15;;;;;;;;;;;;;;;;;;373458;26;687;-86
2024/04/14 01:13:26;;;;;;;;;;;;;;;;;;373217;26;1584;-86
2024/04/14 01:13:36;;;;;;;;;;;;;;;;;;373462;26;996;-86
2024/04/14 01:13:46;;;;;;;;;;;;;;;;;;373623;26;1020;-86
2024/04/14 01:13:57;;;;;;;;;;;;;;;;;;370993;26;1011;-86
2024/04/14 01:14:07;;;;;;;;;;;;;;;;;;371670;26;1063;-86
2024/04/14 01:14:17;;;;;;;;;;;;;;;;;;374018;26;1000;-86
2024/04/14 01:14:28;;;;;;;;;;;;;;;;;;373645;26;1251;-86
2024/04/14 01:14:38;;;;;;;;;;;;;;;;;;372795;26;952;-86
2024/04/14 01:14:50;;;;;;;;;;;;;;;;;;371189;26;1075;-86
2024/04/14 01:15:00;;;;;;;;;;;;;;;;;;368529;26;992;-86
2024/04/14 01:15:11;;;;;;;;;;;;;;;;;;368749;26;996;-86